sensor_id;sensor_type;location;lat;lon;timestamp;pressure;altitude;pressure_sealevel;temperature;humidity
3668;BME280;24099;47.102;15.440;2022-12-11T00:00:39;95524.31;;;2.44;100.00
3668;BME280;24099;47.102;15.440;2022-12-11T00:03:07;95524.38;;;2.36;100.00
3668;BME280;24099;47.102;15.440;2022-12-11T00:05:37;95521.59;;;2.60;100.00
3668;BME280;24099;47.102;15.440;2022-12-11T00:08:06;95505.41;;;2.58;100.00
3668;BME280;24099;47.102;15.440;2022-12-11T00:10:34;95503.91;;;2.41;100.00
3668;BME280;24099;47.102;15.440;2022-12-11T00:13:02;95507.72;;;2.30;100.00
3668;BME280;24099;47.102;15.440;2022-12-11T00:15:31;95510.78;;;2.34;100.00
3668;BME280;24099;47.102;15.440;2022-12-11T00:17:59;95511.16;;;2.23;100.00
3668;BME280;24099;47.102;15.440;2022-12-11T00:20:26;95486.00;;;2.69;100.00
3668;BME280;24099;47.102;15.440;2022-12-11T00:22:54;95486.06;;;2.61;100.00
3668;BME280;24099;47.102;15.440;2022-12-11T00:25:23;95480.72;;;2.39;100.00
3668;BME280;24099;47.102;15.440;2022-12-11T00:27:51;95480.44;;;2.34;100.00
3668;BME280;24099;47.102;15.440;2022-12-11T00:30:19;95495.13;;;2.42;100.00
3668;BME280;24099;47.102;15.440;2022-12-11T00:32:46;95514.00;;;2.36;100.00
3668;BME280;24099;47.102;15.440;2022-12-11T00:35:14;95504.59;;;2.35;100.00
3668;BME280;24099;47.102;15.440;2022-12-11T00:37:41;95510.81;;;2.26;100.00
3668;BME280;24099;47.102;15.440;2022-12-11T00:40:10;95513.25;;;2.27;100.00
3668;BME280;24099;47.102;15.440;2022-12-11T00:42:39;95513.03;;;2.37;100.00
3668;BME280;24099;47.102;15.440;2022-12-11T00:45:08;95526.09;;;2.21;100.00
3668;BME280;24099;47.102;15.440;2022-12-11T00:47:36;95539.94;;;2.05;100.00
3668;BME280;24099;47.102;15.440;2022-12-11T00:50:05;95535.25;;;2.08;100.00
3668;BME280;24099;47.102;15.440;2022-12-11T00:52:33;95523.69;;;2.42;100.00
3668;BME280;24099;47.102;15.440;2022-12-11T00:55:01;95516.97;;;2.56;100.00
3668;BME280;24099;47.102;15.440;2022-12-11T00:57:28;95511.69;;;2.41;100.00
3668;BME280;24099;47.102;15.440;2022-12-11T00:59:57;95514.28;;;2.41;100.00
3668;BME280;24099;47.102;15.440;2022-12-11T01:02:25;95525.06;;;2.30;100.00
3668;BME280;24099;47.102;15.440;2022-12-11T01:04:53;95518.06;;;2.38;100.00
3668;BME280;24099;47.102;15.440;2022-12-11T01:07:21;95525.03;;;2.38;100.00
3668;BME280;24099;47.102;15.440;2022-12-11T01:09:48;95506.91;;;2.75;100.00
3668;BME280;24099;47.102;15.440;2022-12-11T01:12:34;95485.19;;;2.91;100.00
3668;BME280;24099;47.102;15.440;2022-12-11T01:15:03;95504.47;;;2.74;100.00
3668;BME280;24099;47.102;15.440;2022-12-11T01:17:31;95515.16;;;2.33;100.00
3668;BME280;24099;47.102;15.440;2022-12-11T01:19:59;95522.47;;;2.30;100.00
3668;BME280;24099;47.102;15.440;2022-12-11T01:22:27;95534.56;;;2.15;100.00
3668;BME280;24099;47.102;15.440;2022-12-11T01:24:57;95567.00;;;2.11;100.00
3668;BME280;24099;47.102;15.440;2022-12-11T01:27:25;95563.06;;;2.23;100.00
3668;BME280;24099;47.102;15.440;2022-12-11T01:29:53;95563.81;;;2.85;100.00
3668;BME280;24099;47.102;15.440;2022-12-11T01:32:24;95555.59;;;2.51;100.00
3668;BME280;24099;47.102;15.440;2022-12-11T01:34:51;95553.59;;;2.38;100.00
3668;BME280;24099;47.102;15.440;2022-12-11T01:37:19;95558.13;;;2.36;100.00
3668;BME280;24099;47.102;15.440;2022-12-11T01:39:47;95555.28;;;2.54;100.00
3668;BME280;24099;47.102;15.440;2022-12-11T01:42:17;95546.84;;;2.74;100.00
3668;BME280;24099;47.102;15.440;2022-12-11T01:47:59;95539.34;;;2.80;100.00
3668;BME280;24099;47.102;15.440;2022-12-11T01:50:28;95533.44;;;2.86;100.00
3668;BME280;24099;47.102;15.440;2022-12-11T01:52:58;95525.94;;;2.91;100.00
3668;BME280;24099;47.102;15.440;2022-12-11T01:55:26;95514.03;;;2.96;100.00
3668;BME280;24099;47.102;15.440;2022-12-11T01:57:53;95521.38;;;2.93;100.00
3668;BME280;24099;47.102;15.440;2022-12-11T02:00:21;95529.88;;;2.87;100.00
3668;BME280;24099;47.102;15.440;2022-12-11T02:02:49;95532.75;;;2.92;100.00
3668;BME280;24099;47.102;15.440;2022-12-11T02:05:18;95551.91;;;2.91;100.00
3668;BME280;24099;47.102;15.440;2022-12-11T02:07:48;95523.09;;;3.00;100.00
3668;BME280;24099;47.102;15.440;2022-12-11T02:10:17;95534.75;;;3.04;100.00
3668;BME280;24099;47.102;15.440;2022-12-11T02:12:53;95533.91;;;3.27;100.00
3668;BME280;24099;47.102;15.440;2022-12-11T02:15:30;95528.91;;;3.02;100.00
3668;BME280;24099;47.102;15.440;2022-12-11T02:18:11;95539.53;;;3.16;100.00
3668;BME280;24099;47.102;15.440;2022-12-11T02:20:46;95534.28;;;3.01;100.00
3668;BME280;24099;47.102;15.440;2022-12-11T02:26:17;95538.16;;;3.05;100.00
3668;BME280;24099;47.102;15.440;2022-12-11T02:28:52;95522.47;;;2.98;100.00
3668;BME280;24099;47.102;15.440;2022-12-11T02:31:25;95534.72;;;2.90;100.00
3668;BME280;24099;47.102;15.440;2022-12-11T02:34:00;95511.59;;;3.18;100.00
3668;BME280;24099;47.102;15.440;2022-12-11T02:36:32;95521.69;;;3.13;100.00
3668;BME280;24099;47.102;15.440;2022-12-11T02:39:03;95520.94;;;3.04;100.00
3668;BME280;24099;47.102;15.440;2022-12-11T02:41:33;95510.19;;;3.07;100.00
3668;BME280;24099;47.102;15.440;2022-12-11T02:44:03;95509.25;;;3.23;100.00
3668;BME280;24099;47.102;15.440;2022-12-11T02:46:34;95521.59;;;3.06;100.00
3668;BME280;24099;47.102;15.440;2022-12-11T02:49:04;95510.84;;;3.24;100.00
3668;BME280;24099;47.102;15.440;2022-12-11T02:51:37;95511.03;;;3.22;100.00
3668;BME280;24099;47.102;15.440;2022-12-11T02:54:08;95501.53;;;3.15;100.00
3668;BME280;24099;47.102;15.440;2022-12-11T02:56:39;95502.88;;;3.25;100.00
3668;BME280;24099;47.102;15.440;2022-12-11T02:59:14;95512.66;;;3.23;100.00
3668;BME280;24099;47.102;15.440;2022-12-11T03:01:42;95511.59;;;3.32;100.00
3668;BME280;24099;47.102;15.440;2022-12-11T03:04:10;95512.47;;;3.25;100.00
3668;BME280;24099;47.102;15.440;2022-12-11T03:06:42;95512.16;;;3.05;100.00
3668;BME280;24099;47.102;15.440;2022-12-11T03:09:10;95511.13;;;3.29;100.00
3668;BME280;24099;47.102;15.440;2022-12-11T03:11:41;95505.19;;;3.20;100.00
3668;BME280;24099;47.102;15.440;2022-12-11T03:14:10;95489.97;;;3.17;100.00
3668;BME280;24099;47.102;15.440;2022-12-11T03:16:41;95496.34;;;3.15;100.00
3668;BME280;24099;47.102;15.440;2022-12-11T03:19:20;95515.84;;;3.10;100.00
3668;BME280;24099;47.102;15.440;2022-12-11T03:21:53;95509.78;;;3.18;100.00
3668;BME280;24099;47.102;15.440;2022-12-11T03:24:29;95507.88;;;3.12;100.00
3668;BME280;24099;47.102;15.440;2022-12-11T03:27:07;95513.16;;;3.04;100.00
3668;BME280;24099;47.102;15.440;2022-12-11T03:29:40;95532.44;;;3.09;100.00
3668;BME280;24099;47.102;15.440;2022-12-11T03:32:12;95519.91;;;3.13;100.00
3668;BME280;24099;47.102;15.440;2022-12-11T03:34:49;95508.75;;;3.04;100.00
3668;BME280;24099;47.102;15.440;2022-12-11T03:37:19;95513.88;;;2.98;100.00
3668;BME280;24099;47.102;15.440;2022-12-11T03:39:50;95500.47;;;2.86;100.00
3668;BME280;24099;47.102;15.440;2022-12-11T03:42:20;95485.69;;;2.87;100.00
3668;BME280;24099;47.102;15.440;2022-12-11T03:44:51;95491.22;;;2.69;100.00
3668;BME280;24099;47.102;15.440;2022-12-11T03:47:24;95475.56;;;2.77;100.00
3668;BME280;24099;47.102;15.440;2022-12-11T03:49:53;95482.91;;;2.73;100.00
3668;BME280;24099;47.102;15.440;2022-12-11T03:52:23;95492.69;;;2.63;100.00
3668;BME280;24099;47.102;15.440;2022-12-11T03:54:54;95485.09;;;2.62;100.00
3668;BME280;24099;47.102;15.440;2022-12-11T03:57:29;95496.28;;;2.62;100.00
3668;BME280;24099;47.102;15.440;2022-12-11T04:00:00;95490.75;;;2.65;100.00
3668;BME280;24099;47.102;15.440;2022-12-11T04:02:38;95486.34;;;2.66;100.00
3668;BME280;24099;47.102;15.440;2022-12-11T04:05:07;95482.06;;;2.58;100.00
3668;BME280;24099;47.102;15.440;2022-12-11T04:07:35;95480.69;;;2.62;100.00
3668;BME280;24099;47.102;15.440;2022-12-11T04:10:04;95456.47;;;2.70;100.00
3668;BME280;24099;47.102;15.440;2022-12-11T04:12:31;95484.69;;;2.50;100.00
3668;BME280;24099;47.102;15.440;2022-12-11T04:15:00;95471.75;;;2.65;100.00
3668;BME280;24099;47.102;15.440;2022-12-11T04:17:27;95470.69;;;2.59;100.00
3668;BME280;24099;47.102;15.440;2022-12-11T04:20:12;95467.84;;;2.69;100.00
3668;BME280;24099;47.102;15.440;2022-12-11T04:22:57;95478.75;;;2.64;100.00
3668;BME280;24099;47.102;15.440;2022-12-11T04:25:43;95470.59;;;2.67;100.00
3668;BME280;24099;47.102;15.440;2022-12-11T04:28:10;95470.38;;;2.54;100.00
3668;BME280;24099;47.102;15.440;2022-12-11T04:30:39;95470.94;;;2.64;100.00
3668;BME280;24099;47.102;15.440;2022-12-11T04:33:07;95476.09;;;2.72;100.00
3668;BME280;24099;47.102;15.440;2022-12-11T04:35:35;95473.44;;;2.58;100.00
3668;BME280;24099;47.102;15.440;2022-12-11T04:38:03;95467.31;;;2.73;100.00
3668;BME280;24099;47.102;15.440;2022-12-11T04:40:31;95477.47;;;2.60;100.00
3668;BME280;24099;47.102;15.440;2022-12-11T04:42:58;95467.66;;;2.70;100.00
3668;BME280;24099;47.102;15.440;2022-12-11T04:45:26;95449.13;;;2.73;100.00
3668;BME280;24099;47.102;15.440;2022-12-11T04:47:55;95458.44;;;2.83;100.00
3668;BME280;24099;47.102;15.440;2022-12-11T04:50:23;95454.25;;;2.82;100.00
3668;BME280;24099;47.102;15.440;2022-12-11T04:52:53;95452.28;;;2.84;100.00
3668;BME280;24099;47.102;15.440;2022-12-11T04:55:21;95458.38;;;2.91;100.00
3668;BME280;24099;47.102;15.440;2022-12-11T04:57:48;95457.22;;;2.93;100.00
3668;BME280;24099;47.102;15.440;2022-12-11T05:00:16;95444.94;;;2.87;100.00
3668;BME280;24099;47.102;15.440;2022-12-11T05:02:44;95460.25;;;2.82;100.00
3668;BME280;24099;47.102;15.440;2022-12-11T05:05:13;95470.13;;;3.01;100.00
3668;BME280;24099;47.102;15.440;2022-12-11T05:07:41;95457.53;;;3.13;100.00
3668;BME280;24099;47.102;15.440;2022-12-11T05:10:09;95475.59;;;3.06;100.00
3668;BME280;24099;47.102;15.440;2022-12-11T05:12:40;95472.41;;;3.19;100.00
3668;BME280;24099;47.102;15.440;2022-12-11T05:15:08;95479.75;;;3.16;100.00
3668;BME280;24099;47.102;15.440;2022-12-11T05:17:36;95485.84;;;3.08;100.00
3668;BME280;24099;47.102;15.440;2022-12-11T05:20:04;95489.69;;;2.97;100.00
3668;BME280;24099;47.102;15.440;2022-12-11T05:22:33;95490.56;;;3.04;100.00
3668;BME280;24099;47.102;15.440;2022-12-11T05:25:01;95471.69;;;3.10;100.00
3668;BME280;24099;47.102;15.440;2022-12-11T05:27:29;95488.16;;;3.03;100.00
3668;BME280;24099;47.102;15.440;2022-12-11T05:29:56;95491.31;;;3.13;100.00
3668;BME280;24099;47.102;15.440;2022-12-11T05:32:24;95496.41;;;3.21;100.00
3668;BME280;24099;47.102;15.440;2022-12-11T05:34:52;95502.34;;;3.15;100.00
3668;BME280;24099;47.102;15.440;2022-12-11T05:37:20;95491.94;;;3.15;100.00
3668;BME280;24099;47.102;15.440;2022-12-11T05:39:49;95493.81;;;3.06;100.00
3668;BME280;24099;47.102;15.440;2022-12-11T05:42:16;95512.09;;;2.98;100.00
3668;BME280;24099;47.102;15.440;2022-12-11T05:44:44;95507.88;;;3.12;100.00
3668;BME280;24099;47.102;15.440;2022-12-11T05:47:11;95525.06;;;2.98;100.00
3668;BME280;24099;47.102;15.440;2022-12-11T05:49:39;95539.22;;;2.96;100.00
3668;BME280;24099;47.102;15.440;2022-12-11T05:52:07;95532.19;;;3.19;100.00
3668;BME280;24099;47.102;15.440;2022-12-11T05:54:34;95547.84;;;3.11;100.00
3668;BME280;24099;47.102;15.440;2022-12-11T05:57:03;95539.53;;;3.16;100.00
3668;BME280;24099;47.102;15.440;2022-12-11T05:59:32;95544.97;;;3.06;100.00
3668;BME280;24099;47.102;15.440;2022-12-11T06:02:00;95546.66;;;2.99;100.00
3668;BME280;24099;47.102;15.440;2022-12-11T06:04:29;95549.03;;;2.86;100.00
3668;BME280;24099;47.102;15.440;2022-12-11T06:06:57;95552.38;;;2.94;100.00
3668;BME280;24099;47.102;15.440;2022-12-11T06:09:25;95557.16;;;3.05;100.00
3668;BME280;24099;47.102;15.440;2022-12-11T06:11:53;95551.78;;;3.07;100.00
3668;BME280;24099;47.102;15.440;2022-12-11T06:14:22;95561.31;;;3.15;100.00
3668;BME280;24099;47.102;15.440;2022-12-11T06:16:49;95560.47;;;2.99;100.00
3668;BME280;24099;47.102;15.440;2022-12-11T06:19:18;95573.91;;;3.03;100.00
3668;BME280;24099;47.102;15.440;2022-12-11T06:21:46;95585.78;;;3.20;100.00
3668;BME280;24099;47.102;15.440;2022-12-11T06:24:15;95582.00;;;3.08;100.00
3668;BME280;24099;47.102;15.440;2022-12-11T06:26:43;95586.09;;;3.02;100.00
3668;BME280;24099;47.102;15.440;2022-12-11T06:29:11;95592.72;;;3.28;100.00
3668;BME280;24099;47.102;15.440;2022-12-11T06:31:40;95599.84;;;3.11;100.00
3668;BME280;24099;47.102;15.440;2022-12-11T06:34:08;95602.81;;;3.23;100.00
3668;BME280;24099;47.102;15.440;2022-12-11T06:36:37;95602.09;;;3.14;100.00
3668;BME280;24099;47.102;15.440;2022-12-11T06:39:05;95607.16;;;3.07;100.00
3668;BME280;24099;47.102;15.440;2022-12-11T06:41:33;95608.31;;;3.05;100.00
3668;BME280;24099;47.102;15.440;2022-12-11T06:44:01;95618.38;;;3.08;100.00
3668;BME280;24099;47.102;15.440;2022-12-11T06:46:28;95618.38;;;3.08;100.00
3668;BME280;24099;47.102;15.440;2022-12-11T06:48:57;95630.91;;;3.04;100.00
3668;BME280;24099;47.102;15.440;2022-12-11T06:51:26;95627.56;;;3.19;100.00
3668;BME280;24099;47.102;15.440;2022-12-11T06:53:55;95628.13;;;3.06;100.00
3668;BME280;24099;47.102;15.440;2022-12-11T06:56:23;95618.31;;;3.16;100.00
3668;BME280;24099;47.102;15.440;2022-12-11T06:58:52;95611.56;;;3.07;100.00
3668;BME280;24099;47.102;15.440;2022-12-11T07:01:22;95617.75;;;3.06;100.00
3668;BME280;24099;47.102;15.440;2022-12-11T07:03:52;95619.53;;;3.05;100.00
3668;BME280;24099;47.102;15.440;2022-12-11T07:06:22;95614.97;;;3.07;100.00
3668;BME280;24099;47.102;15.440;2022-12-11T07:08:50;95628.44;;;3.11;99.74
3668;BME280;24099;47.102;15.440;2022-12-11T07:11:19;95620.94;;;3.16;98.28
3668;BME280;24099;47.102;15.440;2022-12-11T07:13:47;95615.91;;;3.15;100.00
3668;BME280;24099;47.102;15.440;2022-12-11T07:16:16;95631.19;;;3.09;96.06
3668;BME280;24099;47.102;15.440;2022-12-11T07:18:47;95630.25;;;3.02;98.88
3668;BME280;24099;47.102;15.440;2022-12-11T07:21:16;95626.22;;;3.00;100.00
3668;BME280;24099;47.102;15.440;2022-12-11T07:23:45;95641.31;;;3.04;100.00
3668;BME280;24099;47.102;15.440;2022-12-11T07:26:14;95650.97;;;2.96;100.00
3668;BME280;24099;47.102;15.440;2022-12-11T07:28:43;95647.25;;;3.13;94.74
3668;BME280;24099;47.102;15.440;2022-12-11T07:31:12;95649.72;;;3.06;97.10
3668;BME280;24099;47.102;15.440;2022-12-11T07:33:40;95663.53;;;3.07;100.00
3668;BME280;24099;47.102;15.440;2022-12-11T07:36:10;95658.41;;;2.99;100.00
3668;BME280;24099;47.102;15.440;2022-12-11T07:38:38;95650.31;;;2.94;99.58
3668;BME280;24099;47.102;15.440;2022-12-11T07:41:09;95658.13;;;2.94;100.00
3668;BME280;24099;47.102;15.440;2022-12-11T07:43:37;95656.69;;;3.14;92.65
3668;BME280;24099;47.102;15.440;2022-12-11T07:46:08;95658.97;;;3.09;94.20
3668;BME280;24099;47.102;15.440;2022-12-11T07:48:38;95665.63;;;3.11;95.37
3668;BME280;24099;47.102;15.440;2022-12-11T07:51:10;95654.81;;;3.23;96.33
3668;BME280;24099;47.102;15.440;2022-12-11T07:53:38;95668.91;;;3.05;98.35
3668;BME280;24099;47.102;15.440;2022-12-11T07:56:08;95659.78;;;3.09;99.52
3668;BME280;24099;47.102;15.440;2022-12-11T07:58:36;95665.28;;;3.15;100.00
3668;BME280;24099;47.102;15.440;2022-12-11T08:01:04;95679.91;;;3.16;95.57
3668;BME280;24099;47.102;15.440;2022-12-11T08:03:32;95672.19;;;3.22;98.14
3668;BME280;24099;47.102;15.440;2022-12-11T08:06:01;95684.13;;;3.17;100.00
3668;BME280;24099;47.102;15.440;2022-12-11T08:08:29;95673.59;;;3.10;98.43
3668;BME280;24099;47.102;15.440;2022-12-11T08:11:00;95682.84;;;3.13;96.44
3668;BME280;24099;47.102;15.440;2022-12-11T08:13:29;95672.19;;;3.22;97.19
3668;BME280;24099;47.102;15.440;2022-12-11T08:15:58;95677.69;;;3.27;100.00
3668;BME280;24099;47.102;15.440;2022-12-11T08:18:29;95677.97;;;3.09;95.17
3668;BME280;24099;47.102;15.440;2022-12-11T08:20:56;95686.81;;;3.23;93.93
3668;BME280;24099;47.102;15.440;2022-12-11T08:23:24;95679.56;;;3.19;93.50
3668;BME280;24099;47.102;15.440;2022-12-11T08:25:52;95691.38;;;3.21;95.28
3668;BME280;24099;47.102;15.440;2022-12-11T08:28:20;95692.03;;;3.23;100.00
3668;BME280;24099;47.102;15.440;2022-12-11T08:30:49;95689.97;;;3.19;100.00
3668;BME280;24099;47.102;15.440;2022-12-11T08:33:17;95692.94;;;3.30;100.00
3668;BME280;24099;47.102;15.440;2022-12-11T08:35:45;95677.09;;;3.40;99.27
3668;BME280;24099;47.102;15.440;2022-12-11T08:38:13;95685.97;;;3.31;92.47
3668;BME280;24099;47.102;15.440;2022-12-11T08:40:40;95679.44;;;3.35;97.48
3668;BME280;24099;47.102;15.440;2022-12-11T08:43:08;95692.28;;;3.36;90.17
3668;BME280;24099;47.102;15.440;2022-12-11T08:45:36;95698.28;;;3.37;90.40
3668;BME280;24099;47.102;15.440;2022-12-11T08:48:05;95699.53;;;3.41;90.21
3668;BME280;24099;47.102;15.440;2022-12-11T08:50:33;95693.97;;;3.44;88.96
3668;BME280;24099;47.102;15.440;2022-12-11T08:53:01;95693.19;;;3.43;88.86
3668;BME280;24099;47.102;15.440;2022-12-11T08:55:29;95697.97;;;3.55;91.39
3668;BME280;24099;47.102;15.440;2022-12-11T08:57:58;95699.31;;;3.51;87.86
3668;BME280;24099;47.102;15.440;2022-12-11T09:00:27;95698.97;;;3.54;89.97
3668;BME280;24099;47.102;15.440;2022-12-11T09:02:54;95698.78;;;3.55;85.80
3668;BME280;24099;47.102;15.440;2022-12-11T09:05:23;95699.31;;;3.51;86.97
3668;BME280;24099;47.102;15.440;2022-12-11T09:07:51;95700.94;;;3.52;84.88
3668;BME280;24099;47.102;15.440;2022-12-11T09:10:19;95693.28;;;3.50;90.78
3668;BME280;24099;47.102;15.440;2022-12-11T09:12:47;95705.97;;;3.53;91.08
3668;BME280;24099;47.102;15.440;2022-12-11T09:15:14;95671.69;;;3.50;85.89
3668;BME280;24099;47.102;15.440;2022-12-11T09:17:42;95678.16;;;3.54;88.18
3668;BME280;24099;47.102;15.440;2022-12-11T09:20:14;95677.16;;;3.55;87.61
3668;BME280;24099;47.102;15.440;2022-12-11T09:22:43;95689.53;;;3.53;86.96
3668;BME280;24099;47.102;15.440;2022-12-11T09:25:10;95683.53;;;3.52;84.77
3668;BME280;24099;47.102;15.440;2022-12-11T09:27:38;95687.84;;;3.60;86.81
3668;BME280;24099;47.102;15.440;2022-12-11T09:30:07;95686.50;;;3.64;84.90
3668;BME280;24099;47.102;15.440;2022-12-11T09:32:35;95683.75;;;3.65;85.44
3668;BME280;24099;47.102;15.440;2022-12-11T09:35:02;95681.94;;;3.66;85.37
3668;BME280;24099;47.102;15.440;2022-12-11T09:37:32;95684.31;;;3.75;87.44
3668;BME280;24099;47.102;15.440;2022-12-11T09:40:02;95682.88;;;3.73;83.04
3668;BME280;24099;47.102;15.440;2022-12-11T09:42:35;95683.38;;;3.68;82.94
3668;BME280;24099;47.102;15.440;2022-12-11T09:45:13;95693.44;;;3.71;86.07
3668;BME280;24099;47.102;15.440;2022-12-11T09:47:43;95695.25;;;3.71;83.00
3668;BME280;24099;47.102;15.440;2022-12-11T09:50:16;95685.16;;;3.91;88.13
3668;BME280;24099;47.102;15.440;2022-12-11T09:52:55;95694.56;;;3.77;83.90
3668;BME280;24099;47.102;15.440;2022-12-11T09:55:31;95696.75;;;3.65;83.15
3668;BME280;24099;47.102;15.440;2022-12-11T09:58:09;95696.28;;;3.62;80.61
3668;BME280;24099;47.102;15.440;2022-12-11T10:00:42;95703.34;;;3.53;80.48
3668;BME280;24099;47.102;15.440;2022-12-11T10:03:39;95708.03;;;3.58;84.75
3668;BME280;24099;47.102;15.440;2022-12-11T10:06:16;95700.50;;;3.63;87.93
3668;BME280;24099;47.102;15.440;2022-12-11T10:08:54;95691.66;;;3.72;81.78
3668;BME280;24099;47.102;15.440;2022-12-11T10:11:41;95703.44;;;3.60;80.69
3668;BME280;24099;47.102;15.440;2022-12-11T10:14:18;95712.34;;;3.42;78.83
3668;BME280;24099;47.102;15.440;2022-12-11T10:16:52;95691.72;;;3.41;78.79
3668;BME280;24099;47.102;15.440;2022-12-11T10:19:23;95683.53;;;3.52;79.62
3668;BME280;24099;47.102;15.440;2022-12-11T10:21:53;95711.38;;;3.43;80.17
3668;BME280;24099;47.102;15.440;2022-12-11T10:24:32;95701.31;;;3.63;81.03
3668;BME280;24099;47.102;15.440;2022-12-11T10:27:13;95710.28;;;3.61;80.77
3668;BME280;24099;47.102;15.440;2022-12-11T10:29:41;95708.66;;;3.60;79.29
3668;BME280;24099;47.102;15.440;2022-12-11T10:32:19;95702.13;;;3.41;78.68
3668;BME280;24099;47.102;15.440;2022-12-11T10:34:50;95703.88;;;3.49;79.50
3668;BME280;24099;47.102;15.440;2022-12-11T10:37:21;95713.16;;;3.66;79.13
3668;BME280;24099;47.102;15.440;2022-12-11T10:39:49;95707.06;;;3.36;77.51
3668;BME280;24099;47.102;15.440;2022-12-11T10:42:19;95708.31;;;3.63;79.88
3668;BME280;24099;47.102;15.440;2022-12-11T10:44:56;95708.78;;;3.66;79.19
3668;BME280;24099;47.102;15.440;2022-12-11T10:47:24;95711.63;;;3.57;76.21
3668;BME280;24099;47.102;15.440;2022-12-11T10:49:54;95718.19;;;3.67;76.21
3668;BME280;24099;47.102;15.440;2022-12-11T10:52:25;95713.00;;;3.44;74.56
3668;BME280;24099;47.102;15.440;2022-12-11T10:54:58;95708.69;;;3.37;72.03
3668;BME280;24099;47.102;15.440;2022-12-11T10:57:30;95708.38;;;3.55;77.13
3668;BME280;24099;47.102;15.440;2022-12-11T10:59:59;95716.66;;;3.58;75.23
3668;BME280;24099;47.102;15.440;2022-12-11T11:02:29;95715.47;;;3.61;77.17
3668;BME280;24099;47.102;15.440;2022-12-11T11:04:59;95717.84;;;3.70;79.18
3668;BME280;24099;47.102;15.440;2022-12-11T11:07:28;95695.53;;;3.76;76.25
3668;BME280;24099;47.102;15.440;2022-12-11T11:10:09;95710.06;;;3.47;72.99
3668;BME280;24099;47.102;15.440;2022-12-11T11:12:43;95695.59;;;3.45;71.98
3668;BME280;24099;47.102;15.440;2022-12-11T11:15:14;95694.09;;;3.51;74.02
3668;BME280;24099;47.102;15.440;2022-12-11T11:17:44;95690.66;;;3.35;71.45
3668;BME280;24099;47.102;15.440;2022-12-11T11:20:15;95688.47;;;3.62;74.37
3668;BME280;24099;47.102;15.440;2022-12-11T11:22:45;95680.94;;;3.52;74.32
3668;BME280;24099;47.102;15.440;2022-12-11T11:25:18;95681.53;;;3.77;75.17
3668;BME280;24099;47.102;15.440;2022-12-11T11:27:51;95676.16;;;3.78;74.06
3668;BME280;24099;47.102;15.440;2022-12-11T11:30:22;95675.97;;;3.80;73.57
3668;BME280;24099;47.102;15.440;2022-12-11T11:32:52;95666.06;;;3.98;76.74
3668;BME280;24099;47.102;15.440;2022-12-11T11:35:23;95669.88;;;3.88;72.16
3668;BME280;24099;47.102;15.440;2022-12-11T11:38:01;95677.44;;;3.97;74.35
3668;BME280;24099;47.102;15.440;2022-12-11T11:40:36;95672.13;;;3.91;77.10
3668;BME280;24099;47.102;15.440;2022-12-11T11:43:12;95668.16;;;3.80;71.49
3668;BME280;24099;47.102;15.440;2022-12-11T11:45:46;95660.75;;;4.06;72.75
3668;BME280;24099;47.102;15.440;2022-12-11T11:48:27;95693.13;;;3.89;72.41
3668;BME280;24099;47.102;15.440;2022-12-11T11:50:58;95679.56;;;3.79;70.54
3668;BME280;24099;47.102;15.440;2022-12-11T11:53:31;95673.84;;;3.61;70.75
3668;BME280;24099;47.102;15.440;2022-12-11T11:56:06;95675.31;;;3.40;71.62
3668;BME280;24099;47.102;15.440;2022-12-11T11:58:46;95675.78;;;3.44;70.65
3668;BME280;24099;47.102;15.440;2022-12-11T12:01:18;95670.22;;;3.70;71.32
3668;BME280;24099;47.102;15.440;2022-12-11T12:03:47;95671.47;;;3.74;69.61
3668;BME280;24099;47.102;15.440;2022-12-11T12:06:27;95679.47;;;3.50;72.27
3668;BME280;24099;47.102;15.440;2022-12-11T12:09:04;95670.88;;;3.49;69.38
3668;BME280;24099;47.102;15.440;2022-12-11T12:11:38;95678.16;;;3.54;69.54
3668;BME280;24099;47.102;15.440;2022-12-11T12:14:14;95670.22;;;3.70;72.13
3668;BME280;24099;47.102;15.440;2022-12-11T12:16:50;95668.78;;;3.82;71.72
3668;BME280;24099;47.102;15.440;2022-12-11T12:19:41;95661.88;;;3.74;73.63
3668;BME280;24099;47.102;15.440;2022-12-11T12:22:21;95668.53;;;3.77;72.54
3668;BME280;24099;47.102;15.440;2022-12-11T12:24:59;95669.47;;;3.61;70.14
3668;BME280;24099;47.102;15.440;2022-12-11T12:27:37;95658.34;;;3.53;68.11
3668;BME280;24099;47.102;15.440;2022-12-11T12:30:14;95676.75;;;3.43;73.16
3668;BME280;24099;47.102;15.440;2022-12-11T12:32:51;95664.72;;;3.65;70.67
3668;BME280;24099;47.102;15.440;2022-12-11T12:35:32;95682.53;;;3.53;69.24
3668;BME280;24099;47.102;15.440;2022-12-11T12:38:07;95680.41;;;3.34;68.93
3668;BME280;24099;47.102;15.440;2022-12-11T12:40:47;95679.19;;;3.22;68.42
3668;BME280;24099;47.102;15.440;2022-12-11T12:43:34;95675.72;;;3.06;67.63
3668;BME280;24099;47.102;15.440;2022-12-11T12:46:13;95682.25;;;3.02;69.23
3668;BME280;24099;47.102;15.440;2022-12-11T12:48:46;95684.56;;;3.20;70.98
3668;BME280;24099;47.102;15.440;2022-12-11T12:51:16;95680.00;;;3.22;72.20
3668;BME280;24099;47.102;15.440;2022-12-11T12:53:49;95675.16;;;3.19;75.48
3668;BME280;24099;47.102;15.440;2022-12-11T12:56:20;95674.09;;;3.05;70.78
3668;BME280;24099;47.102;15.440;2022-12-11T12:58:48;95680.22;;;2.90;68.18
3668;BME280;24099;47.102;15.440;2022-12-11T13:01:19;95679.31;;;3.05;69.48
3668;BME280;24099;47.102;15.440;2022-12-11T13:03:55;95680.38;;;3.19;71.29
3668;BME280;24099;47.102;15.440;2022-12-11T13:06:34;95681.53;;;2.86;68.22
3668;BME280;24099;47.102;15.440;2022-12-11T13:09:14;95685.63;;;3.11;70.84
3668;BME280;24099;47.102;15.440;2022-12-11T13:11:44;95682.16;;;3.19;71.68
3668;BME280;24099;47.102;15.440;2022-12-11T13:14:25;95690.47;;;3.14;70.49
3668;BME280;24099;47.102;15.440;2022-12-11T13:17:25;95681.56;;;3.08;70.36
3668;BME280;24099;47.102;15.440;2022-12-11T13:20:14;95688.41;;;3.01;69.55
3668;BME280;24099;47.102;15.440;2022-12-11T13:23:06;95692.13;;;3.07;70.73
3668;BME280;24099;47.102;15.440;2022-12-11T13:25:48;95683.53;;;2.75;66.90
3668;BME280;24099;47.102;15.440;2022-12-11T13:28:27;95693.78;;;2.77;65.78
3668;BME280;24099;47.102;15.440;2022-12-11T13:31:06;95699.72;;;2.86;67.39